createdAt,value
2023-12-21T00:01:43.510Z,3.10
2023-12-21T00:04:15.091Z,3.11
2023-12-21T00:06:46.345Z,3.11
2023-12-21T00:09:20.103Z,3.11
2023-12-21T00:11:51.137Z,3.12
2023-12-21T00:14:20.696Z,3.12
2023-12-21T00:16:52.000Z,3.12
2023-12-21T00:19:23.385Z,3.12
2023-12-21T00:21:54.775Z,3.12
2023-12-21T00:24:25.879Z,3.12
2023-12-21T00:26:57.156Z,3.13
2023-12-21T00:29:28.238Z,3.14
2023-12-21T00:31:59.266Z,3.14
2023-12-21T00:34:30.291Z,3.15
2023-12-21T00:36:59.799Z,3.15
2023-12-21T00:39:30.923Z,3.14
2023-12-21T00:42:00.525Z,3.13
2023-12-21T00:44:31.620Z,3.12
2023-12-21T00:47:04.107Z,3.12
2023-12-21T00:49:35.407Z,3.12
2023-12-21T00:52:07.571Z,3.12
2023-12-21T00:54:38.629Z,3.11
2023-12-21T00:57:11.211Z,3.10
2023-12-21T00:59:42.586Z,3.09
2023-12-21T01:02:12.267Z,3.09
2023-12-21T01:04:43.497Z,3.08
2023-12-21T01:07:14.955Z,3.07
2023-12-21T01:09:46.253Z,3.06
2023-12-21T01:12:17.179Z,3.04
2023-12-21T01:14:48.394Z,3.05
2023-12-21T01:17:19.707Z,3.05
2023-12-21T01:19:50.838Z,3.04
2023-12-21T01:22:22.039Z,3.04
2023-12-21T01:24:53.412Z,3.04
2023-12-21T01:27:31.888Z,3.03
2023-12-21T01:30:04.432Z,3.03
2023-12-21T01:32:35.834Z,3.02
2023-12-21T01:35:07.926Z,3.01
2023-12-21T01:37:39.193Z,2.98
2023-12-21T01:40:10.060Z,2.98
2023-12-21T01:42:41.153Z,2.95
2023-12-21T01:45:14.009Z,2.92
2023-12-21T01:47:47.964Z,2.91
2023-12-21T01:50:19.795Z,2.90
2023-12-21T01:52:52.983Z,2.88
2023-12-21T01:55:24.453Z,2.87
2023-12-21T01:57:55.779Z,2.86
2023-12-21T02:00:27.590Z,2.85
2023-12-21T02:02:59.061Z,2.84
2023-12-21T02:05:30.388Z,2.84
2023-12-21T02:08:01.800Z,2.84
2023-12-21T02:10:33.021Z,2.82
2023-12-21T02:13:04.281Z,2.81
2023-12-21T02:15:35.553Z,2.78
2023-12-21T02:18:10.119Z,2.78
2023-12-21T02:20:43.629Z,2.77
2023-12-21T02:23:16.233Z,2.77
2023-12-21T02:25:48.096Z,2.76
2023-12-21T02:28:19.515Z,2.75
2023-12-21T02:30:50.810Z,2.75
2023-12-21T02:33:20.274Z,2.76
2023-12-21T02:35:51.439Z,2.74
2023-12-21T02:38:22.448Z,2.74
2023-12-21T02:40:53.505Z,2.75
2023-12-21T02:43:24.772Z,2.74
2023-12-21T02:45:54.241Z,2.74
2023-12-21T02:48:25.436Z,2.73
2023-12-21T02:50:58.168Z,2.74
2023-12-21T02:53:29.330Z,2.75
2023-12-21T02:56:00.496Z,2.74
2023-12-21T02:58:33.295Z,2.75
2023-12-21T03:01:02.960Z,2.76
2023-12-21T03:03:34.425Z,2.75
2023-12-21T03:06:05.580Z,2.75
2023-12-21T03:08:35.121Z,2.75
2023-12-21T03:11:06.380Z,2.74
2023-12-21T03:13:37.800Z,2.74
2023-12-21T03:16:08.308Z,2.75
2023-12-21T03:18:39.499Z,2.74
2023-12-21T03:21:11.861Z,2.75
2023-12-21T03:23:43.338Z,2.76
2023-12-21T03:26:15.784Z,2.76
2023-12-21T03:28:47.614Z,2.76
2023-12-21T03:31:20.876Z,2.76
2023-12-21T03:33:52.261Z,2.75
2023-12-21T03:36:21.811Z,2.73
2023-12-21T03:38:53.011Z,2.72
2023-12-21T03:41:24.234Z,2.71
2023-12-21T03:43:55.390Z,2.70
2023-12-21T03:46:25.010Z,2.70
2023-12-21T03:48:56.356Z,2.69
2023-12-21T03:51:27.781Z,2.68
2023-12-21T03:53:58.870Z,2.68
2023-12-21T03:56:28.437Z,2.68
2023-12-21T03:58:59.574Z,2.65
2023-12-21T04:01:31.776Z,2.64
2023-12-21T04:04:03.495Z,2.64
2023-12-21T04:06:34.939Z,2.65
2023-12-21T04:09:07.198Z,2.66
2023-12-21T04:11:38.451Z,2.64
2023-12-21T04:14:08.102Z,2.64
2023-12-21T04:16:39.698Z,2.63
2023-12-21T04:19:11.192Z,2.63
2023-12-21T04:21:44.877Z,2.63
2023-12-21T04:24:16.935Z,2.65
2023-12-21T04:26:48.296Z,2.66
2023-12-21T04:29:19.704Z,2.68
2023-12-21T04:31:51.349Z,2.69
2023-12-21T04:34:22.675Z,2.70
2023-12-21T04:36:52.242Z,2.72
2023-12-21T04:39:23.591Z,2.72
2023-12-21T04:41:54.738Z,2.73
2023-12-21T04:44:25.714Z,2.74
2023-12-21T04:46:57.071Z,2.75
2023-12-21T04:49:28.471Z,2.76
2023-12-21T04:51:59.731Z,2.77
2023-12-21T04:54:29.244Z,2.77
2023-12-21T04:57:00.662Z,2.76
2023-12-21T04:59:32.820Z,2.77
2023-12-21T05:02:04.190Z,2.77
2023-12-21T05:04:35.432Z,2.78
2023-12-21T05:07:10.347Z,2.78
2023-12-21T05:09:41.686Z,2.77
2023-12-21T05:12:13.159Z,2.77
2023-12-21T05:14:44.445Z,2.78
2023-12-21T05:17:15.766Z,2.80
2023-12-21T05:19:47.496Z,2.82
2023-12-21T05:22:18.685Z,2.83
2023-12-21T05:24:48.323Z,2.85
2023-12-21T05:27:19.513Z,2.84
2023-12-21T05:29:49.186Z,2.84
2023-12-21T05:32:20.580Z,2.84
2023-12-21T05:34:51.753Z,2.85
2023-12-21T05:37:22.787Z,2.86
2023-12-21T05:39:52.329Z,2.86
2023-12-21T05:42:23.663Z,2.86
2023-12-21T05:44:54.851Z,2.87
2023-12-21T05:47:25.843Z,2.89
2023-12-21T05:49:56.928Z,2.91
2023-12-21T05:52:26.574Z,2.92
2023-12-21T05:54:58.054Z,2.92
2023-12-21T05:57:29.576Z,2.92
2023-12-21T06:00:01.257Z,2.93
2023-12-21T06:02:34.433Z,2.94
2023-12-21T06:05:05.787Z,2.94
2023-12-21T06:07:37.106Z,2.95
2023-12-21T06:10:09.713Z,2.95
2023-12-21T06:12:40.953Z,2.95
2023-12-21T06:15:12.711Z,2.96
2023-12-21T06:17:43.954Z,2.97
2023-12-21T06:20:15.680Z,2.98
2023-12-21T06:22:47.361Z,2.99
2023-12-21T06:25:19.522Z,2.99
2023-12-21T06:27:50.692Z,3.00
2023-12-21T06:30:20.538Z,3.00
2023-12-21T06:32:51.739Z,2.99
2023-12-21T06:35:23.567Z,3.01
2023-12-21T06:37:55.011Z,3.03
2023-12-21T06:40:25.072Z,3.04
2023-12-21T06:42:56.538Z,3.04
2023-12-21T06:45:28.085Z,3.05
2023-12-21T06:48:02.124Z,3.04
2023-12-21T06:50:33.581Z,3.04
2023-12-21T06:53:04.830Z,3.05
2023-12-21T06:55:35.925Z,3.06
2023-12-21T06:58:07.570Z,3.07
2023-12-21T07:00:38.735Z,3.09
2023-12-21T07:03:08.975Z,3.10
2023-12-21T07:05:40.173Z,3.08
2023-12-21T07:08:11.363Z,3.09
2023-12-21T07:10:42.688Z,3.10
2023-12-21T07:13:14.359Z,3.11
2023-12-21T07:15:45.475Z,3.12
2023-12-21T07:18:16.856Z,3.12
2023-12-21T07:20:48.269Z,3.13
2023-12-21T07:23:19.832Z,3.12
2023-12-21T07:25:50.804Z,3.13
2023-12-21T07:28:21.938Z,3.13
2023-12-21T07:30:53.387Z,3.14
2023-12-21T07:33:24.867Z,3.15
2023-12-21T07:35:56.000Z,3.16
2023-12-21T07:38:27.265Z,3.17
2023-12-21T07:40:58.694Z,3.16
2023-12-21T07:43:28.353Z,3.16
2023-12-21T07:45:59.710Z,3.15
2023-12-21T07:48:31.140Z,3.14
2023-12-21T07:51:00.730Z,3.14
2023-12-21T07:53:31.836Z,3.13
2023-12-21T07:56:03.986Z,3.13
2023-12-21T07:58:35.528Z,3.14
2023-12-21T08:01:07.660Z,3.16
2023-12-21T08:03:39.111Z,3.17
2023-12-21T08:06:11.212Z,3.19
2023-12-21T08:11:16.343Z,3.24
2023-12-21T08:13:47.733Z,3.26
2023-12-21T08:16:19.414Z,3.27
2023-12-21T08:18:50.616Z,3.30
2023-12-21T08:21:21.534Z,3.33
2023-12-21T08:23:52.542Z,3.36
2023-12-21T08:26:23.686Z,3.38
2023-12-21T08:28:55.456Z,3.39
2023-12-21T08:31:31.423Z,3.41
2023-12-21T08:34:03.533Z,3.43
2023-12-21T08:36:34.850Z,3.43
2023-12-21T08:39:06.601Z,3.43
2023-12-21T08:41:37.725Z,3.44
2023-12-21T08:44:10.126Z,3.46
2023-12-21T08:46:45.383Z,3.47
2023-12-21T08:49:17.575Z,3.48
2023-12-21T08:51:48.854Z,3.48
2023-12-21T08:54:19.908Z,3.47
2023-12-21T08:56:52.045Z,3.46
2023-12-21T08:59:27.262Z,3.44
2023-12-21T09:02:00.061Z,3.44
2023-12-21T09:04:31.517Z,3.44
2023-12-21T09:07:03.096Z,3.44
2023-12-21T09:09:34.342Z,3.44
2023-12-21T09:12:05.593Z,3.45
2023-12-21T09:14:36.824Z,3.46
2023-12-21T09:17:08.159Z,3.48
2023-12-21T09:19:39.291Z,3.49
2023-12-21T09:22:09.510Z,3.50
2023-12-21T09:24:40.897Z,3.51
2023-12-21T09:27:12.830Z,3.53
2023-12-21T09:29:44.122Z,3.55
2023-12-21T09:32:15.243Z,3.56
2023-12-21T09:34:50.058Z,3.57
2023-12-21T09:37:21.315Z,3.58
2023-12-21T09:39:51.726Z,3.60
2023-12-21T09:42:24.050Z,3.61
2023-12-21T09:44:56.263Z,3.63
2023-12-21T09:47:30.916Z,3.65
2023-12-21T09:50:05.547Z,3.67
2023-12-21T09:52:38.358Z,3.69
2023-12-21T09:55:11.208Z,3.71
2023-12-21T09:57:42.702Z,3.74
2023-12-21T10:00:15.917Z,3.76
2023-12-21T10:02:47.644Z,3.79
2023-12-21T10:05:18.961Z,3.82
2023-12-21T10:07:48.557Z,3.84
2023-12-21T10:10:21.032Z,3.85
2023-12-21T10:12:53.320Z,3.87
2023-12-21T10:15:24.399Z,3.90
2023-12-21T10:17:55.803Z,3.92
2023-12-21T10:20:27.711Z,3.95
2023-12-21T10:22:59.269Z,3.98
2023-12-21T10:25:30.424Z,4.00
2023-12-21T10:28:00.094Z,4.02
2023-12-21T10:30:31.217Z,4.02
2023-12-21T10:33:07.715Z,4.03
2023-12-21T10:35:39.629Z,4.04
2023-12-21T10:38:12.235Z,4.06
2023-12-21T10:40:50.707Z,4.07
2023-12-21T10:43:22.561Z,4.08
2023-12-21T10:45:54.250Z,4.10
2023-12-21T10:48:26.152Z,4.12
2023-12-21T10:50:57.872Z,4.14
2023-12-21T10:53:32.717Z,4.15
2023-12-21T10:56:05.261Z,4.15
2023-12-21T10:58:36.750Z,4.16
2023-12-21T11:01:08.601Z,4.16
2023-12-21T11:03:41.556Z,4.16
2023-12-21T11:06:13.161Z,4.16
2023-12-21T11:08:46.032Z,4.15
2023-12-21T11:11:22.402Z,4.16
2023-12-21T11:13:56.741Z,4.16
2023-12-21T11:16:31.237Z,4.15
2023-12-21T11:19:04.884Z,4.15
2023-12-21T11:21:36.626Z,4.16
2023-12-21T11:24:08.706Z,4.16
2023-12-21T11:26:40.467Z,4.17
2023-12-21T11:29:12.198Z,4.16
2023-12-21T11:31:43.821Z,4.18
2023-12-21T11:34:16.914Z,4.19
2023-12-21T11:36:48.404Z,4.21
2023-12-21T11:39:21.459Z,4.21
2023-12-21T11:42:00.339Z,4.23
2023-12-21T11:44:38.903Z,4.24
2023-12-21T11:47:16.213Z,4.24
2023-12-21T11:49:47.854Z,4.24
2023-12-21T11:52:28.127Z,4.26
2023-12-21T11:54:59.562Z,4.27
2023-12-21T11:57:33.605Z,4.27
2023-12-21T12:00:19.624Z,4.27
2023-12-21T12:02:52.969Z,4.27
2023-12-21T12:05:25.321Z,4.29
2023-12-21T12:07:57.920Z,4.30
2023-12-21T12:10:29.349Z,4.30
2023-12-21T12:12:59.094Z,4.31
2023-12-21T12:15:30.468Z,4.30
2023-12-21T12:18:01.620Z,4.31
2023-12-21T12:20:33.513Z,4.32
2023-12-21T12:23:05.086Z,4.33
2023-12-21T12:25:43.282Z,4.33
2023-12-21T12:28:20.071Z,4.35
2023-12-21T12:30:51.442Z,4.35
2023-12-21T12:33:23.130Z,4.35
2023-12-21T12:35:54.436Z,4.35
2023-12-21T12:38:24.119Z,4.36
2023-12-21T12:40:55.449Z,4.34
2023-12-21T12:43:29.129Z,4.34
2023-12-21T12:46:00.467Z,4.33
2023-12-21T12:48:31.979Z,4.31
2023-12-21T12:51:03.326Z,4.31
2023-12-21T12:53:35.848Z,4.31
2023-12-21T12:56:08.113Z,4.32
2023-12-21T13:01:16.081Z,4.32
2023-12-21T13:03:47.699Z,4.32
2023-12-21T13:06:19.167Z,4.32
2023-12-21T13:08:50.480Z,4.31
2023-12-21T13:11:20.139Z,4.32
2023-12-21T13:13:51.568Z,4.30
2023-12-21T13:16:22.757Z,4.29
2023-12-21T13:18:52.265Z,4.30
2023-12-21T13:21:23.732Z,4.27
2023-12-21T13:23:54.763Z,4.27
2023-12-21T13:26:24.388Z,4.27
2023-12-21T13:28:56.082Z,4.26
2023-12-21T13:31:27.503Z,4.26
2023-12-21T13:33:59.683Z,4.27
2023-12-21T13:36:32.714Z,4.27
2023-12-21T13:39:04.178Z,4.26
2023-12-21T13:41:35.255Z,4.27
2023-12-21T13:44:12.851Z,4.28
2023-12-21T13:46:46.990Z,4.29
2023-12-21T13:49:18.443Z,4.29
2023-12-21T13:51:49.778Z,4.30
2023-12-21T13:54:19.980Z,4.31
2023-12-21T13:56:59.578Z,4.30
2023-12-21T13:59:38.726Z,4.31
2023-12-21T14:02:10.338Z,4.32
2023-12-21T14:04:41.899Z,4.33
2023-12-21T14:07:13.157Z,4.34
2023-12-21T14:09:42.688Z,4.35
2023-12-21T14:12:13.681Z,4.35
2023-12-21T14:14:43.374Z,4.38
2023-12-21T14:17:14.720Z,4.39
2023-12-21T14:19:45.912Z,4.40
2023-12-21T14:22:15.385Z,4.42
2023-12-21T14:24:46.442Z,4.42
2023-12-21T14:27:18.256Z,4.43
2023-12-21T14:29:49.362Z,4.44
2023-12-21T14:32:20.270Z,4.45
2023-12-21T14:34:51.321Z,4.47
2023-12-21T14:37:22.789Z,4.47
2023-12-21T14:39:54.114Z,4.49
2023-12-21T14:42:26.140Z,4.51
2023-12-21T14:44:57.275Z,4.52
2023-12-21T14:47:31.132Z,4.54
2023-12-21T14:50:04.803Z,4.55
2023-12-21T14:52:36.004Z,4.56
2023-12-21T14:55:08.501Z,4.58
2023-12-21T14:57:40.059Z,4.59
2023-12-21T15:00:12.261Z,4.60
2023-12-21T15:02:43.489Z,4.61
2023-12-21T15:05:13.390Z,4.63
2023-12-21T15:07:44.970Z,4.64
2023-12-21T15:10:16.198Z,4.65
2023-12-21T15:12:47.166Z,4.66
2023-12-21T15:15:18.153Z,4.67
2023-12-21T15:17:49.327Z,4.69
2023-12-21T15:20:21.204Z,4.71
2023-12-21T15:22:53.103Z,4.73
2023-12-21T15:25:24.340Z,4.77
2023-12-21T15:27:53.803Z,4.79
2023-12-21T15:30:25.071Z,4.80
2023-12-21T15:32:56.067Z,4.81
2023-12-21T15:35:25.671Z,4.84
2023-12-21T15:37:57.048Z,4.84
2023-12-21T15:40:28.202Z,4.86
2023-12-21T15:42:59.437Z,4.88
2023-12-21T15:45:32.001Z,4.89
2023-12-21T15:48:03.221Z,4.91
2023-12-21T15:50:32.829Z,4.93
2023-12-21T15:53:04.564Z,4.92
2023-12-21T15:55:35.992Z,4.93
2023-12-21T15:58:07.206Z,4.96
2023-12-21T16:00:38.502Z,4.98
2023-12-21T16:03:09.666Z,5.00
2023-12-21T16:05:40.818Z,5.03
2023-12-21T16:08:10.873Z,5.05
2023-12-21T16:10:40.339Z,5.06
2023-12-21T16:13:12.090Z,5.08
2023-12-21T16:15:43.400Z,5.11
2023-12-21T16:18:14.772Z,5.13
2023-12-21T16:20:46.073Z,5.15
2023-12-21T16:23:18.509Z,5.18
2023-12-21T16:25:50.131Z,5.21
2023-12-21T16:28:21.330Z,5.23
2023-12-21T16:30:52.812Z,5.24
2023-12-21T16:33:22.401Z,5.26
2023-12-21T16:35:53.609Z,5.25
2023-12-21T16:38:24.573Z,5.27
2023-12-21T16:40:55.900Z,5.30
2023-12-21T16:43:26.935Z,5.32
2023-12-21T16:45:56.500Z,5.34
2023-12-21T16:48:27.914Z,5.33
2023-12-21T16:50:58.097Z,5.35
2023-12-21T16:53:31.498Z,5.35
2023-12-21T16:56:02.714Z,5.37
2023-12-21T16:58:34.185Z,5.38
2023-12-21T17:01:05.598Z,5.40
2023-12-21T17:03:36.774Z,5.43
2023-12-21T17:06:08.783Z,5.43
2023-12-21T17:08:39.927Z,5.45
2023-12-21T17:11:09.392Z,5.46
2023-12-21T17:13:40.790Z,5.47
2023-12-21T17:16:14.521Z,5.49
2023-12-21T17:18:45.731Z,5.50
2023-12-21T17:21:17.249Z,5.51
2023-12-21T17:23:49.224Z,5.52
2023-12-21T17:26:20.673Z,5.52
2023-12-21T17:28:51.938Z,5.52
2023-12-21T17:31:23.174Z,5.52
2023-12-21T17:33:52.741Z,5.54
2023-12-21T17:36:24.235Z,5.54
2023-12-21T17:38:55.288Z,5.56
2023-12-21T17:41:26.301Z,5.59
2023-12-21T17:43:57.303Z,5.62
2023-12-21T17:46:28.664Z,5.64
2023-12-21T17:48:59.915Z,5.66
2023-12-21T17:51:31.970Z,5.67
2023-12-21T17:54:01.597Z,5.69
2023-12-21T17:56:33.638Z,5.71
2023-12-21T17:59:06.249Z,5.72
2023-12-21T18:01:37.715Z,5.74
2023-12-21T18:04:07.359Z,5.76
2023-12-21T18:06:38.475Z,5.76
2023-12-21T18:09:10.398Z,5.78
2023-12-21T18:11:41.456Z,5.78
2023-12-21T18:14:12.544Z,5.80
2023-12-21T18:16:42.072Z,5.86
2023-12-21T18:19:13.587Z,5.88
2023-12-21T18:21:44.810Z,5.89
2023-12-21T18:24:15.881Z,5.89
2023-12-21T18:26:47.342Z,5.89
2023-12-21T18:29:18.350Z,5.89
2023-12-21T18:31:48.174Z,5.88
2023-12-21T18:34:17.919Z,5.87
2023-12-21T18:36:49.126Z,5.88
2023-12-21T18:39:20.768Z,5.87
2023-12-21T18:41:51.968Z,5.87
2023-12-21T18:44:23.096Z,5.87
2023-12-21T18:46:53.740Z,5.85
2023-12-21T18:49:25.480Z,5.81
2023-12-21T18:51:56.782Z,5.76
2023-12-21T18:54:28.012Z,5.70
2023-12-21T18:56:57.480Z,5.65
2023-12-21T18:59:28.575Z,5.58
2023-12-21T19:01:59.869Z,5.52
2023-12-21T19:04:29.658Z,5.47
2023-12-21T19:07:00.980Z,5.41
2023-12-21T19:09:33.383Z,5.36
2023-12-21T19:12:03.001Z,5.30
2023-12-21T19:14:35.594Z,5.23
2023-12-21T19:17:07.154Z,5.18
2023-12-21T19:19:38.374Z,5.14
2023-12-21T19:22:09.627Z,5.13
2023-12-21T19:24:39.255Z,5.13
2023-12-21T19:27:10.447Z,5.12
2023-12-21T19:29:39.849Z,5.12
2023-12-21T19:32:12.171Z,5.08
2023-12-21T19:34:43.605Z,5.06
2023-12-21T19:37:17.042Z,5.03
2023-12-21T19:39:48.142Z,4.99
2023-12-21T19:42:19.535Z,4.94
2023-12-21T19:44:50.704Z,4.87
2023-12-21T19:47:21.670Z,4.83
2023-12-21T19:49:52.894Z,4.75
2023-12-21T19:52:24.186Z,4.69
2023-12-21T19:54:53.861Z,4.62
2023-12-21T19:57:23.657Z,4.53
2023-12-21T19:59:54.974Z,4.46
2023-12-21T20:02:26.130Z,4.40
2023-12-21T20:04:55.832Z,4.35
2023-12-21T20:07:27.523Z,4.28
2023-12-21T20:09:59.609Z,4.22
2023-12-21T20:12:31.651Z,4.17
2023-12-21T20:15:02.674Z,4.13
2023-12-21T20:17:34.108Z,4.07
2023-12-21T20:20:06.094Z,4.02
2023-12-21T20:22:37.197Z,4.00
2023-12-21T20:25:09.936Z,3.96
2023-12-21T20:27:42.777Z,3.92
2023-12-21T20:30:14.382Z,3.89
2023-12-21T20:32:48.670Z,3.86
2023-12-21T20:35:20.247Z,3.83
2023-12-21T20:37:51.847Z,3.80
2023-12-21T20:40:23.373Z,3.78
2023-12-21T20:42:54.835Z,3.76
2023-12-21T20:45:26.008Z,3.73
2023-12-21T20:47:57.193Z,3.72
2023-12-21T20:50:26.921Z,3.71
2023-12-21T20:52:58.225Z,3.67
2023-12-21T20:55:29.555Z,3.67
2023-12-21T20:58:02.944Z,3.64
2023-12-21T21:00:34.367Z,3.63
2023-12-21T21:03:03.829Z,3.62
2023-12-21T21:05:35.094Z,3.57
2023-12-21T21:08:06.474Z,3.56
2023-12-21T21:10:37.936Z,3.55
2023-12-21T21:13:09.412Z,3.52
2023-12-21T21:15:39.012Z,3.49
2023-12-21T21:18:11.475Z,3.47
2023-12-21T21:20:42.716Z,3.48
2023-12-21T21:23:13.866Z,3.49
2023-12-21T21:25:46.142Z,3.48
2023-12-21T21:28:17.250Z,3.49
2023-12-21T21:30:57.045Z,3.47
2023-12-21T21:33:32.496Z,3.45
2023-12-21T21:36:03.613Z,3.43
2023-12-21T21:38:33.165Z,3.40
2023-12-21T21:41:04.278Z,3.36
2023-12-21T21:43:35.418Z,3.33
2023-12-21T21:46:07.709Z,3.30
2023-12-21T21:48:42.034Z,3.25
2023-12-21T21:51:16.218Z,3.25
2023-12-21T21:53:49.544Z,3.23
2023-12-21T21:56:21.071Z,3.21
2023-12-21T21:58:52.375Z,3.20
2023-12-21T22:01:23.791Z,3.20
2023-12-21T22:03:55.501Z,3.19
2023-12-21T22:06:28.025Z,3.17
2023-12-21T22:08:59.100Z,3.14
2023-12-21T22:11:30.110Z,3.13
2023-12-21T22:14:01.303Z,3.11
2023-12-21T22:16:30.749Z,3.09
2023-12-21T22:19:01.967Z,3.06
2023-12-21T22:21:34.165Z,3.05
2023-12-21T22:24:06.104Z,3.07
2023-12-21T22:26:37.949Z,3.09
2023-12-21T22:29:09.191Z,3.09
2023-12-21T22:31:40.783Z,3.11
2023-12-21T22:34:11.943Z,3.16
2023-12-21T22:36:43.646Z,3.20
2023-12-21T22:39:14.993Z,3.23
2023-12-21T22:41:46.337Z,3.26
2023-12-21T22:44:17.538Z,3.29
2023-12-21T22:46:48.856Z,3.31
2023-12-21T22:49:18.658Z,3.34
2023-12-21T22:51:50.053Z,3.34
2023-12-21T22:54:21.447Z,3.35
2023-12-21T22:56:52.497Z,3.38
2023-12-21T22:59:23.639Z,3.38
2023-12-21T23:01:54.734Z,3.38
2023-12-21T23:04:25.943Z,3.38
2023-12-21T23:06:57.391Z,3.38
2023-12-21T23:09:30.310Z,3.37
2023-12-21T23:11:59.948Z,3.37
2023-12-21T23:14:31.446Z,3.34
2023-12-21T23:17:02.573Z,3.33
2023-12-21T23:19:33.724Z,3.34
2023-12-21T23:22:05.218Z,3.33
2023-12-21T23:24:38.326Z,3.32
2023-12-21T23:27:09.874Z,3.34
2023-12-21T23:29:40.985Z,3.32
2023-12-21T23:32:12.116Z,3.30
2023-12-21T23:34:44.255Z,3.30
2023-12-21T23:37:15.467Z,3.31
2023-12-21T23:39:48.597Z,3.28
2023-12-21T23:42:22.329Z,3.28
2023-12-21T23:44:53.507Z,3.26
2023-12-21T23:47:24.537Z,3.25
2023-12-21T23:49:55.591Z,3.24
2023-12-21T23:52:26.113Z,3.26
2023-12-21T23:54:57.428Z,3.25
2023-12-21T23:57:30.084Z,3.25
